createdAt,value
2018-02-15T00:01:10.679Z,97790.89
2018-02-15T00:03:39.019Z,97797.63
2018-02-15T00:06:06.541Z,97811.93
2018-02-15T00:08:34.046Z,97812.52
2018-02-15T00:11:01.543Z,97807.40
2018-02-15T00:13:29.053Z,97804.70
2018-02-15T00:15:56.563Z,97807.64
2018-02-15T00:18:24.083Z,97801.61
2018-02-15T00:20:51.601Z,97796.97
2018-02-15T00:23:19.877Z,97787.36
2018-02-15T00:25:47.395Z,97778.98
2018-02-15T00:28:14.936Z,97781.67
2018-02-15T00:30:42.452Z,97777.67
2018-02-15T00:33:09.950Z,97774.11
2018-02-15T00:35:37.471Z,97782.50
2018-02-15T00:38:04.952Z,97781.02
2018-02-15T00:40:32.525Z,97780.69
2018-02-15T00:43:00.107Z,97777.77
2018-02-15T00:45:28.475Z,97782.55
2018-02-15T00:47:56.072Z,97774.70
2018-02-15T00:50:23.693Z,97781.72
2018-02-15T00:52:51.250Z,97782.25
2018-02-15T00:55:18.727Z,97778.84
2018-02-15T00:57:46.229Z,97777.62
2018-02-15T01:00:13.747Z,97774.84
2018-02-15T01:02:41.251Z,97763.02
2018-02-15T01:05:08.874Z,97767.84
2018-02-15T01:07:36.392Z,97761.24
2018-02-15T01:10:03.869Z,97762.93
2018-02-15T01:12:31.375Z,97766.34
2018-02-15T01:14:58.941Z,97766.55
2018-02-15T01:17:26.425Z,97769.74
2018-02-15T01:19:53.922Z,97772.23
2018-02-15T01:22:21.589Z,97778.35
2018-02-15T01:24:49.113Z,97788.79
2018-02-15T01:27:16.603Z,97793.81
2018-02-15T01:29:44.127Z,97791.69
2018-02-15T01:32:11.604Z,97790.23
2018-02-15T01:34:39.477Z,97785.92
2018-02-15T01:37:07.035Z,97780.53
2018-02-15T01:39:34.608Z,97769.77
2018-02-15T01:42:02.181Z,97779.74
2018-02-15T01:44:29.710Z,97768.31
2018-02-15T01:46:57.275Z,97766.83
2018-02-15T01:49:24.871Z,97769.95
2018-02-15T01:51:52.430Z,97772.00
2018-02-15T01:54:19.934Z,97770.67
2018-02-15T01:56:47.451Z,97769.14
2018-02-15T01:59:14.992Z,97764.00
2018-02-15T02:01:42.495Z,97755.47
2018-02-15T02:04:10.012Z,97743.78
2018-02-15T02:06:37.496Z,97738.36
2018-02-15T02:09:05.006Z,97737.32
2018-02-15T02:11:32.497Z,97727.98
2018-02-15T02:14:00.020Z,97730.98
2018-02-15T02:16:27.501Z,97741.25
2018-02-15T02:18:55.014Z,97735.88
2018-02-15T02:21:22.499Z,97729.36
2018-02-15T02:23:52.288Z,97734.33
2018-02-15T02:26:19.806Z,97724.56
2018-02-15T02:28:47.304Z,97722.55
2018-02-15T02:31:14.860Z,97719.08
2018-02-15T02:33:42.422Z,97726.81
2018-02-15T02:36:10.011Z,97718.77
2018-02-15T02:38:37.615Z,97715.48
2018-02-15T02:41:05.249Z,97708.02
2018-02-15T02:43:32.806Z,97700.00
2018-02-15T02:46:00.327Z,97703.08
2018-02-15T02:48:28.006Z,97696.68
2018-02-15T02:50:55.505Z,97698.75
2018-02-15T02:53:23.013Z,97701.52
2018-02-15T02:55:50.495Z,97698.66
2018-02-15T02:58:18.016Z,97693.69
2018-02-15T03:03:19.311Z,97682.14
2018-02-15T03:05:46.795Z,97679.84
2018-02-15T03:08:14.396Z,97664.32
2018-02-15T03:10:41.861Z,97667.05
2018-02-15T03:13:09.380Z,97666.16
2018-02-15T03:15:36.872Z,97666.11
2018-02-15T03:18:04.358Z,97668.61
2018-02-15T03:20:31.974Z,97665.08
2018-02-15T03:22:59.468Z,97665.32
2018-02-15T03:25:26.980Z,97666.70
2018-02-15T03:27:54.458Z,97665.83
2018-02-15T03:30:21.980Z,97656.19
2018-02-15T03:32:49.591Z,97655.63
2018-02-15T03:35:17.157Z,97659.03
2018-02-15T03:37:44.686Z,97660.98
2018-02-15T03:40:12.184Z,97656.34
2018-02-15T03:42:39.700Z,97652.27
2018-02-15T03:45:07.169Z,97651.73
2018-02-15T03:47:34.676Z,97645.27
2018-02-15T03:50:02.152Z,97644.23
2018-02-15T03:52:29.685Z,97637.87
2018-02-15T03:54:57.162Z,97636.03
2018-02-15T03:57:24.638Z,97637.87
2018-02-15T03:59:52.145Z,97643.47
2018-02-15T04:02:19.661Z,97641.41
2018-02-15T04:04:47.194Z,97637.31
2018-02-15T04:07:14.815Z,97641.45
2018-02-15T04:09:42.317Z,97637.59
2018-02-15T04:12:09.794Z,97634.58
2018-02-15T04:14:37.299Z,97631.64
2018-02-15T04:17:04.869Z,97624.08
2018-02-15T04:19:32.369Z,97624.30
2018-02-15T04:21:59.894Z,97622.97
2018-02-15T04:24:27.381Z,97626.31
2018-02-15T04:26:54.905Z,97628.77
2018-02-15T04:29:22.391Z,97628.37
2018-02-15T04:31:49.888Z,97633.84
2018-02-15T04:34:17.401Z,97631.19
2018-02-15T04:36:44.903Z,97624.22
2018-02-15T04:39:12.438Z,97626.83
2018-02-15T04:41:39.918Z,97632.33
2018-02-15T04:44:07.433Z,97634.31
2018-02-15T04:46:34.914Z,97640.39
2018-02-15T04:49:02.447Z,97639.42
2018-02-15T04:51:29.933Z,97644.20
2018-02-15T04:53:57.685Z,97657.58
2018-02-15T04:56:25.186Z,97661.62
2018-02-15T04:58:52.663Z,97663.77
2018-02-15T05:01:20.186Z,97657.52
2018-02-15T05:03:47.665Z,97659.42
2018-02-15T05:06:15.179Z,97661.95
2018-02-15T05:08:42.656Z,97665.53
2018-02-15T05:11:10.181Z,97672.70
2018-02-15T05:13:37.739Z,97669.05
2018-02-15T05:16:05.244Z,97662.63
2018-02-15T05:18:32.917Z,97664.77
2018-02-15T05:21:00.566Z,97661.13
2018-02-15T05:23:28.108Z,97663.78
2018-02-15T05:25:55.744Z,97661.00
2018-02-15T05:28:23.263Z,97652.92
2018-02-15T05:30:50.754Z,97655.36
2018-02-15T05:33:18.259Z,97655.06
2018-02-15T05:35:45.827Z,97651.28
2018-02-15T05:38:13.302Z,97647.06
2018-02-15T05:40:40.806Z,97645.40
2018-02-15T05:43:08.279Z,97641.03
2018-02-15T05:45:35.788Z,97643.86
2018-02-15T05:48:03.257Z,97646.80
2018-02-15T05:50:31.503Z,97650.00
2018-02-15T05:52:59.025Z,97646.31
2018-02-15T05:55:26.533Z,97642.95
2018-02-15T05:57:54.047Z,97646.41
2018-02-15T06:00:21.581Z,97648.66
2018-02-15T06:02:49.085Z,97645.08
2018-02-15T06:05:16.558Z,97648.04
2018-02-15T06:07:44.071Z,97650.34
2018-02-15T06:10:11.559Z,97648.54
2018-02-15T06:12:39.056Z,97649.44
2018-02-15T06:15:06.579Z,97649.55
2018-02-15T06:17:36.117Z,97652.38
2018-02-15T06:20:03.682Z,97648.58
2018-02-15T06:22:31.265Z,97651.91
2018-02-15T06:24:58.833Z,97654.19
2018-02-15T06:27:26.408Z,97662.31
2018-02-15T06:29:53.954Z,97659.59
2018-02-15T06:32:21.461Z,97661.62
2018-02-15T06:34:48.971Z,97664.80
2018-02-15T06:37:16.509Z,97665.89
2018-02-15T06:39:43.978Z,97658.68
2018-02-15T06:42:11.495Z,97657.06
2018-02-15T06:44:38.970Z,97668.64
2018-02-15T06:47:06.473Z,97667.42
2018-02-15T06:49:33.957Z,97670.11
2018-02-15T06:52:01.456Z,97670.81
2018-02-15T06:54:28.928Z,97673.80
2018-02-15T06:56:56.499Z,97677.70
2018-02-15T06:59:24.020Z,97679.80
2018-02-15T07:01:51.586Z,97679.77
2018-02-15T07:04:19.217Z,97680.45
2018-02-15T07:06:46.874Z,97682.81
2018-02-15T07:09:14.451Z,97679.92
2018-02-15T07:11:42.006Z,97679.96
2018-02-15T07:14:09.654Z,97682.06
2018-02-15T07:16:37.253Z,97681.20
2018-02-15T07:19:04.744Z,97692.77
2018-02-15T07:21:32.280Z,97688.59
2018-02-15T07:23:59.780Z,97682.44
2018-02-15T07:26:27.295Z,97688.88
2018-02-15T07:28:54.804Z,97687.59
2018-02-15T07:31:22.289Z,97686.78
2018-02-15T07:33:49.771Z,97685.62
2018-02-15T07:36:17.282Z,97687.84
2018-02-15T07:38:44.782Z,97690.02
2018-02-15T07:41:12.314Z,97694.53
2018-02-15T07:43:39.826Z,97697.19
2018-02-15T07:46:07.363Z,97690.86
2018-02-15T07:48:34.861Z,97698.41
2018-02-15T07:51:02.408Z,97697.84
2018-02-15T07:53:29.914Z,97698.31
2018-02-15T07:55:57.416Z,97696.18
2018-02-15T07:58:24.943Z,97693.88
2018-02-15T08:00:53.022Z,97696.83
2018-02-15T08:03:20.532Z,97696.86
2018-02-15T08:05:48.141Z,97699.52
2018-02-15T08:08:15.733Z,97695.55
2018-02-15T08:10:43.311Z,97689.70
2018-02-15T08:13:10.860Z,97684.17
2018-02-15T08:15:38.372Z,97684.17
2018-02-15T08:18:05.863Z,97678.48
2018-02-15T08:20:33.395Z,97689.17
2018-02-15T08:23:00.872Z,97682.44
2018-02-15T08:25:28.386Z,97688.84
2018-02-15T08:27:55.874Z,97693.00
2018-02-15T08:30:23.365Z,97691.11
2018-02-15T08:32:50.928Z,97691.06
2018-02-15T08:35:18.411Z,97696.63
2018-02-15T08:37:45.955Z,97693.16
2018-02-15T08:40:14.224Z,97698.59
2018-02-15T08:42:41.882Z,97701.38
2018-02-15T08:45:09.458Z,97699.59
2018-02-15T08:47:37.084Z,97704.50
2018-02-15T08:50:04.649Z,97696.91
2018-02-15T08:52:32.189Z,97699.00
2018-02-15T08:54:59.696Z,97700.86
2018-02-15T08:57:27.212Z,97702.19
2018-02-15T08:59:54.750Z,97699.84
2018-02-15T09:02:22.250Z,97700.31
2018-02-15T09:04:49.788Z,97702.13
2018-02-15T09:07:17.289Z,97692.31
2018-02-15T09:09:44.799Z,97692.93
2018-02-15T09:12:12.307Z,97695.05
2018-02-15T09:14:39.832Z,97695.47
2018-02-15T09:17:08.197Z,97693.38
2018-02-15T09:19:35.799Z,97688.66
2018-02-15T09:22:03.307Z,97688.95
2018-02-15T09:24:30.872Z,97684.09
2018-02-15T09:26:58.382Z,97672.05
2018-02-15T09:29:25.894Z,97664.80
2018-02-15T09:31:53.399Z,97663.27
2018-02-15T09:34:20.918Z,97658.19
2018-02-15T09:36:48.490Z,97667.67
2018-02-15T09:39:15.982Z,97660.02
2018-02-15T09:41:43.492Z,97658.16
2018-02-15T09:44:10.971Z,97663.38
2018-02-15T09:46:38.477Z,97669.20
2018-02-15T09:49:05.951Z,97670.31
2018-02-15T09:51:33.477Z,97665.69
2018-02-15T09:54:01.117Z,97664.95
2018-02-15T09:56:28.610Z,97653.70
2018-02-15T09:58:56.129Z,97655.09
2018-02-15T10:01:23.613Z,97644.65
2018-02-15T10:03:51.118Z,97652.25
2018-02-15T10:06:18.615Z,97656.75
2018-02-15T10:08:46.144Z,97654.20
2018-02-15T10:11:13.633Z,97660.72
2018-02-15T10:13:41.154Z,97662.61
2018-02-15T10:16:08.635Z,97664.70
2018-02-15T10:18:36.169Z,97664.10
2018-02-15T10:21:03.686Z,97660.76
2018-02-15T10:23:31.181Z,97650.84
2018-02-15T10:25:58.820Z,97646.16
2018-02-15T10:28:26.433Z,97633.94
2018-02-15T10:30:53.974Z,97633.97
2018-02-15T10:33:21.483Z,97642.31
2018-02-15T10:35:49.009Z,97638.23
2018-02-15T10:38:16.583Z,97642.53
2018-02-15T10:40:44.106Z,97638.82
2018-02-15T10:43:11.632Z,97643.45
2018-02-15T10:45:39.142Z,97645.61
2018-02-15T10:48:06.659Z,97646.64
2018-02-15T10:50:34.168Z,97642.06
2018-02-15T10:53:01.684Z,97638.16
2018-02-15T10:55:29.177Z,97635.05
2018-02-15T10:57:56.707Z,97630.02
2018-02-15T11:00:29.797Z,97629.92
2018-02-15T11:03:03.505Z,97625.98
2018-02-15T11:05:32.287Z,97625.64
2018-02-15T11:07:59.792Z,97623.87
2018-02-15T11:10:27.336Z,97618.02
2018-02-15T11:12:54.857Z,97618.48
2018-02-15T11:15:22.375Z,97613.05
2018-02-15T11:17:49.929Z,97615.47
2018-02-15T11:20:17.572Z,97610.77
2018-02-15T11:22:45.090Z,97609.78
2018-02-15T11:25:12.735Z,97607.13
2018-02-15T11:27:40.344Z,97609.75
2018-02-15T11:30:07.877Z,97614.66
2018-02-15T11:32:35.366Z,97622.08
2018-02-15T11:35:03.759Z,97618.39
2018-02-15T11:37:31.276Z,97616.33
2018-02-15T11:39:59.500Z,97618.64
2018-02-15T11:42:27.023Z,97622.77
2018-02-15T11:44:54.549Z,97618.99
2018-02-15T11:47:22.060Z,97611.72
2018-02-15T11:49:49.551Z,97616.97
2018-02-15T11:52:17.087Z,97624.75
2018-02-15T11:54:44.567Z,97622.64
2018-02-15T11:57:12.125Z,97625.97
2018-02-15T11:59:39.613Z,97632.96
2018-02-15T12:02:07.123Z,97632.38
2018-02-15T12:04:34.680Z,97635.89
2018-02-15T12:07:02.169Z,97649.16
2018-02-15T12:09:29.686Z,97645.76
2018-02-15T12:11:57.180Z,97646.09
2018-02-15T12:14:25.309Z,97652.48
2018-02-15T12:16:52.810Z,97651.08
2018-02-15T12:19:20.338Z,97652.58
2018-02-15T12:21:47.848Z,97643.13
2018-02-15T12:24:15.337Z,97646.85
2018-02-15T12:26:42.848Z,97642.38
2018-02-15T12:29:10.344Z,97638.92
2018-02-15T12:31:37.853Z,97646.39
2018-02-15T12:34:05.352Z,97640.02
2018-02-15T12:36:32.945Z,97634.92
2018-02-15T12:39:00.516Z,97641.41
2018-02-15T12:41:28.061Z,97637.46
2018-02-15T12:43:55.742Z,97646.42
2018-02-15T12:46:23.299Z,97642.98
2018-02-15T12:48:50.824Z,97641.06
2018-02-15T12:51:18.314Z,97643.58
2018-02-15T12:53:45.860Z,97649.80
2018-02-15T12:56:13.345Z,97638.61
2018-02-15T12:58:40.909Z,97641.82
2018-02-15T13:01:08.408Z,97647.70
2018-02-15T13:03:35.911Z,97648.93
2018-02-15T13:06:03.463Z,97642.92
2018-02-15T13:08:30.990Z,97642.79
2018-02-15T13:10:58.502Z,97638.18
2018-02-15T13:13:31.821Z,97645.40
2018-02-15T13:19:16.285Z,97639.20
2018-02-15T13:21:43.828Z,97637.52
2018-02-15T13:24:11.348Z,97633.16
2018-02-15T13:26:38.846Z,97638.37
2018-02-15T13:29:06.392Z,97649.16
2018-02-15T13:31:33.874Z,97646.44
2018-02-15T13:34:01.401Z,97647.19
2018-02-15T13:36:28.938Z,97653.98
2018-02-15T13:38:57.082Z,97652.77
2018-02-15T13:41:24.606Z,97653.45
2018-02-15T13:43:52.926Z,97644.94
2018-02-15T13:46:20.418Z,97648.31
2018-02-15T13:48:47.949Z,97649.02
2018-02-15T13:51:15.448Z,97649.82
2018-02-15T13:53:42.997Z,97647.20
2018-02-15T13:56:10.619Z,97653.48
2018-02-15T13:58:38.152Z,97658.75
2018-02-15T14:01:05.677Z,97661.48
2018-02-15T14:03:33.179Z,97653.48
2018-02-15T14:06:00.703Z,97662.73
2018-02-15T14:08:28.222Z,97662.05
2018-02-15T14:10:55.781Z,97664.71
2018-02-15T14:13:23.275Z,97662.45
2018-02-15T14:15:50.812Z,97663.14
2018-02-15T14:18:18.353Z,97658.78
2018-02-15T14:20:46.334Z,97657.44
2018-02-15T14:23:13.939Z,97653.85
2018-02-15T14:25:41.497Z,97655.56
2018-02-15T14:28:09.135Z,97654.52
2018-02-15T14:30:36.755Z,97657.02
2018-02-15T14:33:04.302Z,97658.77
2018-02-15T14:35:31.940Z,97656.85
2018-02-15T14:37:59.474Z,97663.66
2018-02-15T14:40:27.018Z,97671.19
2018-02-15T14:42:54.534Z,97672.14
2018-02-15T14:45:22.067Z,97669.35
2018-02-15T14:47:49.567Z,97672.47
2018-02-15T14:50:17.103Z,97680.99
2018-02-15T14:52:44.628Z,97677.50
2018-02-15T14:55:12.125Z,97680.85
2018-02-15T14:57:39.641Z,97686.06
2018-02-15T15:00:07.149Z,97678.63
2018-02-15T15:02:34.818Z,97685.53
2018-02-15T15:05:02.333Z,97691.16
2018-02-15T15:07:29.859Z,97691.31
2018-02-15T15:09:57.377Z,97688.81
2018-02-15T15:12:24.998Z,97697.63
2018-02-15T15:14:53.265Z,97697.48
2018-02-15T15:17:20.797Z,97703.77
2018-02-15T15:19:48.317Z,97704.96
2018-02-15T15:22:15.852Z,97704.02
2018-02-15T15:24:43.383Z,97712.41
2018-02-15T15:27:11.046Z,97716.27
2018-02-15T15:29:38.650Z,97713.89
2018-02-15T15:32:06.632Z,97708.14
2018-02-15T15:34:34.194Z,97706.92
2018-02-15T15:37:01.804Z,97705.97
2018-02-15T15:39:29.316Z,97689.42
2018-02-15T15:41:56.912Z,97708.54
2018-02-15T15:44:24.717Z,97715.48
2018-02-15T15:46:52.265Z,97720.30
2018-02-15T15:49:19.771Z,97717.63
2018-02-15T15:51:47.325Z,97716.60
2018-02-15T15:54:14.842Z,97727.98
2018-02-15T15:56:42.370Z,97723.20
2018-02-15T15:59:09.899Z,97714.31
2018-02-15T16:01:37.581Z,97727.81
2018-02-15T16:04:05.133Z,97722.36
2018-02-15T16:06:33.402Z,97711.56
2018-02-15T16:09:01.556Z,97712.25
2018-02-15T16:11:29.569Z,97710.38
2018-02-15T16:13:57.079Z,97713.69
2018-02-15T16:16:24.623Z,97720.25
2018-02-15T16:18:52.282Z,97723.83
2018-02-15T16:21:19.803Z,97722.91
2018-02-15T16:23:47.330Z,97729.18
2018-02-15T16:26:14.972Z,97726.80
2018-02-15T16:31:16.295Z,97724.53
2018-02-15T16:33:43.822Z,97726.16
2018-02-15T16:36:11.387Z,97727.39
2018-02-15T16:38:38.889Z,97727.80
2018-02-15T16:41:06.580Z,97734.59
2018-02-15T16:43:34.103Z,97739.02
2018-02-15T16:46:01.604Z,97741.17
2018-02-15T16:48:29.145Z,97742.15
2018-02-15T16:50:56.670Z,97738.00
2018-02-15T16:53:24.574Z,97742.66
2018-02-15T16:55:52.706Z,97739.59
2018-02-15T16:58:20.241Z,97754.41
2018-02-15T17:00:47.823Z,97743.72
2018-02-15T17:03:15.345Z,97752.42
2018-02-15T17:05:42.845Z,97763.86
2018-02-15T17:08:10.471Z,97763.84
2018-02-15T17:10:38.030Z,97768.42
2018-02-15T17:13:05.750Z,97767.35
2018-02-15T17:15:33.414Z,97756.67
2018-02-15T17:18:00.981Z,97756.69
2018-02-15T17:20:28.703Z,97762.56
2018-02-15T17:22:56.243Z,97759.63
2018-02-15T17:25:23.799Z,97768.58
2018-02-15T17:27:51.442Z,97767.91
2018-02-15T17:30:18.966Z,97761.13
2018-02-15T17:32:46.913Z,97766.22
2018-02-15T17:35:14.493Z,97767.03
2018-02-15T17:37:42.021Z,97762.09
2018-02-15T17:40:09.514Z,97760.37
2018-02-15T17:42:37.035Z,97752.89
2018-02-15T17:45:04.571Z,97749.11
2018-02-15T17:47:32.587Z,97761.80
2018-02-15T17:50:00.183Z,97765.01
2018-02-15T17:52:27.735Z,97766.78
2018-02-15T17:54:55.311Z,97762.48
2018-02-15T17:57:22.829Z,97761.29
2018-02-15T17:59:50.345Z,97770.37
2018-02-15T18:02:17.907Z,97771.58
2018-02-15T18:04:45.481Z,97778.80
2018-02-15T18:07:13.026Z,97771.31
2018-02-15T18:09:40.543Z,97777.61
2018-02-15T18:12:08.472Z,97774.94
2018-02-15T18:14:36.077Z,97782.16
2018-02-15T18:17:03.671Z,97777.48
2018-02-15T18:19:31.263Z,97776.97
2018-02-15T18:21:58.813Z,97781.79
2018-02-15T18:24:26.583Z,97781.26
2018-02-15T18:26:54.119Z,97780.59
2018-02-15T18:29:21.691Z,97775.09
2018-02-15T18:31:49.209Z,97778.72
2018-02-15T18:34:16.753Z,97778.47
2018-02-15T18:36:44.344Z,97778.58
2018-02-15T18:39:11.905Z,97782.87
2018-02-15T18:41:39.711Z,97783.27
2018-02-15T18:44:07.245Z,97785.14
2018-02-15T18:46:34.829Z,97778.86
2018-02-15T18:49:02.390Z,97788.61
2018-02-15T18:51:29.918Z,97790.56
2018-02-15T18:53:57.493Z,97792.04
2018-02-15T18:56:25.085Z,97784.70
2018-02-15T18:58:52.697Z,97784.55
2018-02-15T19:01:20.218Z,97787.08
2018-02-15T19:03:47.744Z,97791.08
2018-02-15T19:06:15.344Z,97789.36
2018-02-15T19:08:42.901Z,97788.81
2018-02-15T19:11:10.422Z,97791.74
2018-02-15T19:13:37.958Z,97787.86
2018-02-15T19:16:05.654Z,97782.63
2018-02-15T19:18:33.174Z,97785.97
2018-02-15T19:21:01.170Z,97780.23
2018-02-15T19:23:28.711Z,97780.76
2018-02-15T19:25:56.254Z,97785.70
2018-02-15T19:28:23.822Z,97786.11
2018-02-15T19:30:51.566Z,97783.70
2018-02-15T19:33:19.093Z,97788.89
2018-02-15T19:35:46.921Z,97794.78
2018-02-15T19:38:14.425Z,97782.64
2018-02-15T19:40:41.970Z,97782.89
2018-02-15T19:43:09.495Z,97783.31
2018-02-15T19:45:37.026Z,97784.64
2018-02-15T19:48:04.804Z,97782.09
2018-02-15T19:50:32.414Z,97782.75
2018-02-15T19:52:59.987Z,97781.13
2018-02-15T19:55:27.585Z,97779.69
2018-02-15T19:57:55.497Z,97785.98
2018-02-15T20:00:23.064Z,97785.03
2018-02-15T20:02:50.600Z,97774.73
2018-02-15T20:05:18.172Z,97777.66
2018-02-15T20:07:45.815Z,97786.09
2018-02-15T20:10:13.378Z,97790.53
2018-02-15T20:12:40.897Z,97782.63
2018-02-15T20:15:09.271Z,97768.84
2018-02-15T20:17:36.883Z,97779.23
2018-02-15T20:20:10.148Z,97778.73
2018-02-15T20:22:37.640Z,97782.19
2018-02-15T20:25:05.234Z,97783.80
2018-02-15T20:30:37.107Z,97792.54
2018-02-15T20:33:04.619Z,97783.56
2018-02-15T20:35:32.154Z,97783.31
2018-02-15T20:38:05.545Z,97778.78
2018-02-15T20:40:36.706Z,97778.38
2018-02-15T20:43:04.383Z,97775.05
2018-02-15T20:45:31.909Z,97773.42
2018-02-15T20:47:59.425Z,97776.64
2018-02-15T20:50:32.393Z,97776.64
2018-02-15T20:53:05.626Z,97779.17
2018-02-15T20:55:38.608Z,97776.50
2018-02-15T20:58:06.827Z,97783.98
2018-02-15T21:00:34.528Z,97785.86
2018-02-15T21:03:02.208Z,97789.88
2018-02-15T21:05:29.778Z,97796.72
2018-02-15T21:07:57.337Z,97803.80
2018-02-15T21:10:24.843Z,97812.88
2018-02-15T21:12:52.411Z,97817.84
2018-02-15T21:15:19.981Z,97825.08
2018-02-15T21:17:47.506Z,97824.00
2018-02-15T21:20:15.039Z,97827.22
2018-02-15T21:22:42.541Z,97823.76
2018-02-15T21:25:10.057Z,97824.03
2018-02-15T21:27:37.628Z,97822.86
2018-02-15T21:30:05.340Z,97817.11
2018-02-15T21:32:32.895Z,97825.94
2018-02-15T21:35:00.415Z,97818.72
2018-02-15T21:37:27.940Z,97821.66
2018-02-15T21:39:55.492Z,97823.78
2018-02-15T21:42:23.029Z,97827.13
2018-02-15T21:44:50.530Z,97823.80
2018-02-15T21:47:18.040Z,97819.20
2018-02-15T21:49:45.553Z,97824.14
2018-02-15T21:52:13.078Z,97817.42
2018-02-15T21:54:40.611Z,97825.19
2018-02-15T21:57:08.158Z,97819.85
2018-02-15T21:59:35.662Z,97832.80
2018-02-15T22:02:03.170Z,97828.00
2018-02-15T22:04:30.704Z,97826.67
2018-02-15T22:06:58.221Z,97836.70
2018-02-15T22:09:25.792Z,97836.97
2018-02-15T22:11:53.286Z,97837.34
2018-02-15T22:14:20.986Z,97843.52
2018-02-15T22:16:48.489Z,97847.27
2018-02-15T22:19:16.006Z,97850.88
2018-02-15T22:21:43.539Z,97853.58
2018-02-15T22:24:11.046Z,97859.59
2018-02-15T22:26:38.569Z,97866.53
2018-02-15T22:29:06.065Z,97868.03
2018-02-15T22:31:33.608Z,97871.55
2018-02-15T22:34:01.128Z,97875.30
2018-02-15T22:36:28.667Z,97889.09
2018-02-15T22:39:00.461Z,97882.94
2018-02-15T22:41:27.980Z,97900.06
2018-02-15T22:43:55.553Z,97897.79
2018-02-15T22:46:23.074Z,97894.58
2018-02-15T22:48:50.564Z,97891.89
2018-02-15T22:51:18.373Z,97895.23
2018-02-15T22:53:45.869Z,97890.95
2018-02-15T22:56:13.375Z,97898.58
2018-02-15T22:58:40.901Z,97901.12
2018-02-15T23:01:08.389Z,97886.81
2018-02-15T23:03:35.951Z,97898.18
2018-02-15T23:06:03.510Z,97898.45
2018-02-15T23:08:31.016Z,97905.13
2018-02-15T23:10:58.489Z,97904.34
2018-02-15T23:13:26.003Z,97909.70
2018-02-15T23:15:53.549Z,97907.42
2018-02-15T23:18:21.168Z,97912.52
2018-02-15T23:20:48.725Z,97909.58
2018-02-15T23:23:17.016Z,97907.97
2018-02-15T23:25:44.810Z,97912.64
2018-02-15T23:28:12.337Z,97917.58
2018-02-15T23:30:39.923Z,97924.93
2018-02-15T23:33:07.493Z,97926.68
2018-02-15T23:35:35.038Z,97928.83
2018-02-15T23:38:02.538Z,97937.39
2018-02-15T23:40:30.044Z,97947.44
2018-02-15T23:42:57.565Z,97947.45
2018-02-15T23:45:25.074Z,97956.56
2018-02-15T23:47:52.587Z,97960.31
2018-02-15T23:50:20.372Z,97965.67
2018-02-15T23:52:47.862Z,97975.31
2018-02-15T23:55:15.389Z,97975.79
2018-02-15T23:57:42.879Z,97981.45
